Time;durP1;ratioP1;P1;durP2;ratioP2;P2;SDS_P1;SDS_P2;PMS_P1;PMS_P2;Temp;Humidity;BMP_temperature;BMP_pressure;BME280_temperature;BME280_humidity;BME280_pressure;Samples;Min_cycle;Max_cycle;Signal;HPM_P1;HPM_P2
2021/01/24 00:01:54;;;;;;;16.90;12.80;;;3.50;99.90;;;;;;4979027;28;20184;-83
2021/01/24 00:04:20;;;;;;;16.27;12.50;;;3.50;99.90;;;;;;4995723;28;20609;-83
2021/01/24 00:06:45;;;;;;;18.40;12.73;;;3.50;99.90;;;;;;4978640;28;20211;-81
2021/01/24 00:09:11;;;;;;;20.20;13.57;;;3.50;99.90;;;;;;4979708;28;20203;-83
2021/01/24 00:11:36;;;;;;;19.70;13.20;;;3.50;99.90;;;;;;5012568;28;20202;-83
2021/01/24 00:14:02;;;;;;;18.10;12.97;;;3.40;99.90;;;;;;4982860;28;20189;-82
2021/01/24 00:16:27;;;;;;;19.73;13.67;;;3.50;99.90;;;;;;4966367;28;20182;-81
2021/01/24 00:18:53;;;;;;;18.07;13.27;;;3.40;99.90;;;;;;4966204;28;20320;-83
2021/01/24 00:21:18;;;;;;;17.73;13.37;;;3.40;99.90;;;;;;4982734;28;20250;-83
2021/01/24 00:23:44;;;;;;;19.10;13.00;;;3.40;99.90;;;;;;4982377;28;20174;-82
2021/01/24 00:26:09;;;;;;;18.83;13.67;;;3.40;99.90;;;;;;4965768;28;20667;-81
2021/01/24 00:28:35;;;;;;;20.67;14.37;;;3.30;99.90;;;;;;4970890;28;20279;-81
2021/01/24 00:31:01;;;;;;;21.23;14.77;;;3.30;99.90;;;;;;4967748;28;20216;-81
2021/01/24 00:33:26;;;;;;;20.93;13.83;;;3.30;99.90;;;;;;4982678;28;20180;-82
2021/01/24 00:35:52;;;;;;;19.70;13.63;;;3.30;99.90;;;;;;4982538;28;20179;-80
2021/01/24 00:38:17;;;;;;;20.07;14.30;;;3.30;99.90;;;;;;4964456;28;20180;-82
2021/01/24 00:40:43;;;;;;;19.67;13.60;;;3.30;99.90;;;;;;4965830;28;20200;-82
2021/01/24 00:43:08;;;;;;;21.10;14.30;;;3.30;99.90;;;;;;4966412;28;20196;-81
2021/01/24 00:45:34;;;;;;;21.70;14.23;;;3.20;99.90;;;;;;4965830;28;20188;-80
2021/01/24 00:47:59;;;;;;;21.33;14.23;;;3.20;99.90;;;;;;4998059;28;20185;-82
2021/01/24 00:50:25;;;;;;;21.77;12.93;;;3.20;99.90;;;;;;4966059;28;20208;-82
2021/01/24 00:52:51;;;;;;;18.93;13.13;;;3.30;99.90;;;;;;4998762;28;20263;-81
2021/01/24 00:55:16;;;;;;;19.90;13.60;;;3.20;99.90;;;;;;4981664;28;20184;-83
2021/01/24 00:57:42;;;;;;;22.07;14.27;;;3.10;99.90;;;;;;4981423;28;20187;-83
2021/01/24 01:00:08;;;;;;;20.70;13.17;;;3.20;99.90;;;;;;4981565;28;20250;-81
2021/01/24 01:02:33;;;;;;;19.67;12.87;;;3.30;99.90;;;;;;4981595;28;20219;-82
2021/01/24 01:04:59;;;;;;;19.37;13.57;;;3.30;99.90;;;;;;4981969;28;20192;-81
2021/01/24 01:07:25;;;;;;;22.27;14.17;;;3.30;99.90;;;;;;4981190;28;20211;-80
2021/01/24 01:09:50;;;;;;;18.57;13.40;;;3.40;99.90;;;;;;4982444;28;20807;-83
2021/01/24 01:12:16;;;;;;;22.03;13.70;;;3.30;99.90;;;;;;4981954;28;20196;-82
2021/01/24 01:14:41;;;;;;;19.57;13.37;;;3.30;99.90;;;;;;4982143;28;20180;-80
2021/01/24 01:17:07;;;;;;;24.33;14.20;;;3.30;99.90;;;;;;4981613;28;20191;-83
2021/01/24 01:19:32;;;;;;;17.40;13.07;;;3.30;99.90;;;;;;4982692;28;20196;-82
2021/01/24 01:21:58;;;;;;;21.07;13.37;;;3.30;99.90;;;;;;4982807;28;20605;-81
2021/01/24 01:24:23;;;;;;;18.83;13.30;;;3.30;99.90;;;;;;4982274;28;20179;-82
2021/01/24 01:26:49;;;;;;;17.67;13.00;;;3.30;99.90;;;;;;4981660;28;20278;-83
2021/01/24 01:29:14;;;;;;;18.73;13.57;;;3.30;99.90;;;;;;4998424;28;20215;-83
2021/01/24 01:31:40;;;;;;;21.40;13.73;;;3.30;99.90;;;;;;4997789;28;20179;-83
2021/01/24 01:34:05;;;;;;;21.20;14.10;;;3.30;99.90;;;;;;4981617;28;20186;-80
2021/01/24 01:36:33;;;;;;;19.00;13.57;;;3.30;99.90;;;;;;4980821;28;20189;-82
2021/01/24 01:38:59;;;;;;;19.57;13.83;;;3.20;99.90;;;;;;4982262;28;20207;-83
2021/01/24 01:41:31;;;;;;;18.57;13.37;;;3.20;99.90;;;;;;4981787;28;20262;-83
2021/01/24 01:43:57;;;;;;;18.90;13.50;;;3.20;99.90;;;;;;4982258;28;20268;-83
2021/01/24 01:46:22;;;;;;;19.07;13.60;;;3.20;99.90;;;;;;4997051;28;20203;-80
2021/01/24 01:48:48;;;;;;;21.20;13.97;;;3.20;99.90;;;;;;4981541;28;20623;-82
2021/01/24 01:51:15;;;;;;;20.13;13.30;;;3.20;99.90;;;;;;4981305;28;20211;-83
2021/01/24 01:53:41;;;;;;;20.50;12.90;;;3.30;99.90;;;;;;4981390;28;20184;-83
2021/01/24 01:56:07;;;;;;;22.73;13.30;;;3.30;99.90;;;;;;4981595;28;20283;-82
2021/01/24 01:58:32;;;;;;;19.60;12.97;;;3.30;99.90;;;;;;4981934;28;20189;-83
2021/01/24 02:00:58;;;;;;;17.80;12.47;;;3.30;99.90;;;;;;4997853;28;20226;-83
2021/01/24 02:03:37;;;;;;;18.23;12.73;;;3.30;99.90;;;;;;4982116;28;20184;-82
2021/01/24 02:06:38;;;;;;;17.03;12.60;;;3.30;99.90;;;;;;4982621;28;20202;-79
2021/01/24 02:09:30;;;;;;;21.13;13.40;;;3.40;99.90;;;;;;4970667;28;20224;-80
2021/01/24 02:12:13;;;;;;;19.37;12.37;;;3.40;99.90;;;;;;4983076;28;20285;-83
2021/01/24 02:14:56;;;;;;;20.13;12.77;;;3.30;99.90;;;;;;4998781;28;20171;-82
2021/01/24 02:17:21;;;;;;;16.60;11.67;;;3.30;99.90;;;;;;4980812;28;20180;-82
2021/01/24 02:20:02;;;;;;;19.83;12.03;;;3.30;99.90;;;;;;4981801;28;20573;-83
2021/01/24 02:22:30;;;;;;;18.90;11.40;;;3.20;99.90;;;;;;4997895;28;20187;-82
2021/01/24 02:25:03;;;;;;;17.67;12.37;;;3.30;99.90;;;;;;4981475;28;20654;-82
2021/01/24 02:27:47;;;;;;;16.93;11.87;;;3.30;99.90;;;;;;4981613;28;20219;-82
2021/01/24 02:30:23;;;;;;;18.00;12.87;;;3.30;99.90;;;;;;5015955;23;20664;-76
2021/01/24 02:33:09;;;;;;;19.87;12.50;;;3.30;99.90;;;;;;5000392;28;20185;-75
2021/01/24 02:35:43;;;;;;;19.27;12.77;;;3.30;99.90;;;;;;5031956;28;20167;-76
2021/01/24 02:38:09;;;;;;;18.33;12.27;;;3.30;99.90;;;;;;5031490;28;20169;-76
2021/01/24 02:40:36;;;;;;;14.73;11.47;;;3.10;99.90;;;;;;5043421;28;20327;-75
2021/01/24 02:43:03;;;;;;;15.40;11.50;;;3.10;99.90;;;;;;5018988;28;20237;-76
2021/01/24 02:45:30;;;;;;;18.73;12.13;;;3.20;99.90;;;;;;5035773;28;20675;-75
2021/01/24 02:47:56;;;;;;;16.53;12.40;;;3.20;99.90;;;;;;5053293;28;20174;-76
2021/01/24 02:50:21;;;;;;;17.47;12.50;;;3.10;99.90;;;;;;5035555;28;20253;-77
2021/01/24 02:52:48;;;;;;;19.20;12.57;;;3.10;99.90;;;;;;5035880;28;20213;-76
2021/01/24 02:55:15;;;;;;;19.10;12.70;;;3.00;99.90;;;;;;5035564;28;20166;-77
2021/01/24 02:57:40;;;;;;;17.73;12.87;;;3.00;99.90;;;;;;5018578;28;20587;-77
2021/01/24 03:00:08;;;;;;;17.40;12.63;;;3.00;99.90;;;;;;5035577;28;20197;-77
2021/01/24 03:02:34;;;;;;;17.03;12.87;;;3.00;99.90;;;;;;5038360;28;20169;-77
2021/01/24 03:05:00;;;;;;;18.57;12.37;;;3.00;99.90;;;;;;5036276;28;20243;-77
2021/01/24 03:07:26;;;;;;;19.10;13.10;;;3.00;99.90;;;;;;5018845;28;20190;-76
2021/01/24 03:09:52;;;;;;;21.03;13.30;;;3.00;99.90;;;;;;5035813;28;20190;-77
2021/01/24 03:12:19;;;;;;;15.87;11.83;;;3.00;99.90;;;;;;5035065;28;20170;-76
2021/01/24 03:14:45;;;;;;;18.30;11.93;;;3.00;99.90;;;;;;5035253;28;20194;-76
2021/01/24 03:17:11;;;;;;;17.23;12.57;;;3.00;99.90;;;;;;5034918;28;20184;-76
2021/01/24 03:19:37;;;;;;;18.67;12.60;;;3.00;99.90;;;;;;5019394;28;20198;-77
2021/01/24 03:22:04;;;;;;;18.53;12.17;;;2.90;99.90;;;;;;5049594;28;20181;-76
2021/01/24 03:24:30;;;;;;;18.33;12.20;;;3.00;99.90;;;;;;5018765;28;20269;-76
2021/01/24 03:26:56;;;;;;;18.80;12.77;;;3.10;99.90;;;;;;5018396;28;20207;-76
2021/01/24 03:29:22;;;;;;;17.50;12.40;;;3.00;99.90;;;;;;5051497;28;20184;-77
2021/01/24 03:31:48;;;;;;;18.73;12.57;;;3.00;99.90;;;;;;5018337;28;20194;-75
2021/01/24 03:34:21;;;;;;;18.80;12.47;;;3.00;99.90;;;;;;5017471;28;20180;-76
2021/01/24 03:36:50;;;;;;;17.77;11.80;;;3.00;99.90;;;;;;5017179;28;20222;-76
2021/01/24 03:39:15;;;;;;;19.83;12.40;;;2.90;99.90;;;;;;5034081;28;20205;-76
2021/01/24 03:41:42;;;;;;;17.77;12.63;;;2.90;99.90;;;;;;5034051;28;20170;-76
2021/01/24 03:44:08;;;;;;;18.03;13.27;;;2.90;99.90;;;;;;5050557;28;20174;-77
2021/01/24 03:46:34;;;;;;;16.80;12.47;;;2.90;99.90;;;;;;5016982;28;20208;-77
2021/01/24 03:49:01;;;;;;;17.83;12.37;;;2.90;99.90;;;;;;5018018;28;20222;-77
2021/01/24 03:51:27;;;;;;;18.73;13.50;;;2.90;99.90;;;;;;5038910;28;20206;-76
2021/01/24 03:53:53;;;;;;;19.57;13.03;;;2.90;99.90;;;;;;5022171;28;20177;-76
2021/01/24 03:56:19;;;;;;;18.53;12.80;;;2.80;99.90;;;;;;5034326;28;20210;-76
2021/01/24 03:58:45;;;;;;;18.50;12.97;;;2.90;99.90;;;;;;5017846;28;20541;-76
2021/01/24 04:01:10;;;;;;;20.97;13.53;;;2.90;99.90;;;;;;5033888;28;20204;-76
2021/01/24 04:03:37;;;;;;;21.23;13.90;;;2.80;99.90;;;;;;5033708;28;20266;-76
2021/01/24 04:06:03;;;;;;;20.53;13.50;;;2.80;99.90;;;;;;5016943;28;20204;-77
2021/01/24 04:08:29;;;;;;;18.97;13.27;;;2.80;99.90;;;;;;5018565;28;20177;-78
2021/01/24 04:10:56;;;;;;;19.77;13.93;;;2.80;99.90;;;;;;5051484;28;20190;-76
2021/01/24 04:13:22;;;;;;;20.10;13.20;;;2.80;99.90;;;;;;5020463;28;20198;-76
2021/01/24 04:15:47;;;;;;;21.27;14.60;;;2.90;99.90;;;;;;5038593;28;20181;-76
2021/01/24 04:18:14;;;;;;;23.43;16.47;;;2.90;99.90;;;;;;5054385;28;20211;-77
2021/01/24 04:20:39;;;;;;;28.40;19.23;;;2.90;99.90;;;;;;5038672;28;20200;-77
2021/01/24 04:23:05;;;;;;;35.77;25.30;;;2.90;99.90;;;;;;5037869;28;20553;-76
2021/01/24 04:25:31;;;;;;;36.23;26.73;;;2.80;99.90;;;;;;5037965;28;20181;-76
2021/01/24 04:27:56;;;;;;;32.13;23.83;;;2.80;99.90;;;;;;5037178;28;20727;-76
2021/01/24 04:30:23;;;;;;;31.80;22.87;;;2.80;99.90;;;;;;5037522;28;20686;-76
2021/01/24 04:32:48;;;;;;;30.13;21.73;;;2.80;99.90;;;;;;5054941;28;20174;-76
2021/01/24 04:35:14;;;;;;;28.37;21.27;;;2.80;99.90;;;;;;5021479;28;20235;-76
2021/01/24 04:37:40;;;;;;;29.90;21.90;;;2.70;99.90;;;;;;5053569;28;20228;-76
2021/01/24 04:40:06;;;;;;;27.90;21.60;;;2.70;99.90;;;;;;5054463;28;20202;-76
2021/01/24 04:42:32;;;;;;;30.03;21.37;;;2.70;99.90;;;;;;5021809;28;20667;-76
2021/01/24 04:44:59;;;;;;;28.27;20.37;;;2.70;99.90;;;;;;5054477;28;20181;-76
2021/01/24 04:47:24;;;;;;;39.50;26.93;;;2.70;99.90;;;;;;5037352;28;20257;-76
2021/01/24 04:49:51;;;;;;;50.13;34.90;;;2.70;99.90;;;;;;5020930;28;20296;-76
2021/01/24 04:52:17;;;;;;;49.80;35.67;;;2.70;99.90;;;;;;5037726;28;20195;-76
2021/01/24 04:54:43;;;;;;;44.23;31.83;;;2.70;99.90;;;;;;5054530;28;20169;-76
2021/01/24 04:57:12;;;;;;;40.33;28.40;;;2.70;99.90;;;;;;5053883;28;20532;-76
2021/01/24 04:59:38;;;;;;;30.83;21.60;;;2.70;99.90;;;;;;5037912;28;20203;-76
2021/01/24 05:02:05;;;;;;;36.17;24.57;;;2.70;99.90;;;;;;5020914;28;20186;-76
2021/01/24 05:04:32;;;;;;;31.30;21.53;;;2.70;99.90;;;;;;5037560;28;20640;-75
2021/01/24 05:06:57;;;;;;;27.87;19.93;;;2.70;99.90;;;;;;5020310;28;20296;-76
2021/01/24 05:09:23;;;;;;;28.40;18.57;;;2.70;99.90;;;;;;5037308;28;20327;-76
2021/01/24 05:11:50;;;;;;;24.13;16.27;;;2.70;99.90;;;;;;5020981;28;20181;-77
2021/01/24 05:14:22;;;;;;;21.80;14.33;;;2.70;99.90;;;;;;5037506;28;20676;-76
2021/01/24 05:16:49;;;;;;;21.50;13.97;;;2.70;99.90;;;;;;5039475;28;20182;-75
2021/01/24 05:19:15;;;;;;;25.20;15.10;;;2.70;99.90;;;;;;5038633;28;20257;-76
2021/01/24 05:21:41;;;;;;;26.07;14.67;;;2.70;99.90;;;;;;5037205;28;20623;-76
2021/01/24 05:24:10;;;;;;;24.10;16.20;;;2.70;99.90;;;;;;5019791;28;20178;-76
2021/01/24 05:26:37;;;;;;;28.43;16.97;;;2.70;99.90;;;;;;5020400;28;20206;-75
2021/01/24 05:29:04;;;;;;;24.77;16.77;;;2.60;99.90;;;;;;5037051;28;20162;-76
2021/01/24 05:31:29;;;;;;;28.43;17.73;;;2.60;99.90;;;;;;5020456;28;20202;-76
2021/01/24 05:33:57;;;;;;;31.90;19.17;;;2.50;99.90;;;;;;5036898;28;20170;-76
2021/01/24 05:36:25;;;;;;;32.70;19.47;;;2.50;99.90;;;;;;5020265;28;20185;-76
2021/01/24 05:38:53;;;;;;;30.80;20.00;;;2.50;99.90;;;;;;5053439;28;20596;-75
2021/01/24 05:41:18;;;;;;;31.70;20.67;;;2.50;99.90;;;;;;5036772;28;20191;-76
2021/01/24 05:43:44;;;;;;;32.00;20.80;;;2.50;99.90;;;;;;5036649;28;20185;-75
2021/01/24 05:46:11;;;;;;;31.67;21.27;;;2.50;99.90;;;;;;5019675;28;20208;-76
2021/01/24 05:48:47;;;;;;;35.03;21.63;;;2.50;99.90;;;;;;5036948;28;20182;-76
2021/01/24 05:51:14;;;;;;;32.83;21.27;;;2.40;99.90;;;;;;5036563;28;20189;-75
2021/01/24 05:53:43;;;;;;;30.93;21.00;;;2.40;99.90;;;;;;5036565;28;20188;-76
2021/01/24 05:56:10;;;;;;;33.87;20.93;;;2.40;99.90;;;;;;5019698;28;20216;-76
2021/01/24 05:58:35;;;;;;;28.27;18.90;;;2.30;99.90;;;;;;5036435;28;20239;-76
2021/01/24 06:01:01;;;;;;;33.73;22.53;;;2.30;99.90;;;;;;5035847;28;20206;-75
2021/01/24 06:03:26;;;;;;;29.03;19.07;;;2.20;99.90;;;;;;5036638;28;20178;-76
2021/01/24 06:05:53;;;;;;;30.87;20.30;;;2.10;99.90;;;;;;5036379;28;20170;-75
2021/01/24 06:08:18;;;;;;;29.67;19.13;;;2.10;99.90;;;;;;5019160;28;20180;-76
2021/01/24 06:10:44;;;;;;;28.97;18.40;;;2.00;99.90;;;;;;5051952;28;20194;-76
2021/01/24 06:13:26;;;;;;;29.43;19.00;;;2.00;99.90;;;;;;5019263;28;20548;-75
2021/01/24 06:15:53;;;;;;;28.00;18.10;;;2.00;99.90;;;;;;5036189;28;20219;-75
2021/01/24 06:18:43;;;;;;;28.63;18.47;;;2.00;99.90;;;;;;5035163;28;20166;-76
2021/01/24 06:21:11;;;;;;;34.70;19.57;;;1.90;99.90;;;;;;5032981;28;20220;-76
2021/01/24 06:23:39;;;;;;;33.30;20.70;;;1.80;99.90;;;;;;5035557;28;20611;-76
2021/01/24 06:26:09;;;;;;;28.33;18.57;;;1.70;99.90;;;;;;5051468;28;20253;-76
2021/01/24 06:28:36;;;;;;;29.83;20.07;;;1.70;99.90;;;;;;5019124;28;20174;-76
2021/01/24 06:31:02;;;;;;;34.10;20.77;;;1.60;99.90;;;;;;5018864;28;20233;-76
2021/01/24 06:33:28;;;;;;;29.07;19.27;;;1.60;99.90;;;;;;5019279;28;20210;-76
2021/01/24 06:36:02;;;;;;;33.63;21.47;;;1.50;99.90;;;;;;5018353;28;20174;-77
2021/01/24 06:38:34;;;;;;;34.63;21.13;;;1.40;99.90;;;;;;5019006;28;20726;-76
2021/01/24 06:41:01;;;;;;;34.67;21.63;;;1.40;99.90;;;;;;5035039;28;20213;-77
2021/01/24 06:43:41;;;;;;;38.57;24.00;;;1.40;99.90;;;;;;5019099;28;20182;-75
2021/01/24 06:46:19;;;;;;;38.60;23.80;;;1.50;99.90;;;;;;5034639;28;20190;-75
2021/01/24 06:48:47;;;;;;;40.57;24.37;;;1.50;99.90;;;;;;5051880;28;20177;-77
2021/01/24 06:51:37;;;;;;;42.03;25.23;;;1.60;99.90;;;;;;5035650;28;20648;-75
2021/01/24 06:54:05;;;;;;;41.17;24.37;;;1.70;99.90;;;;;;5051919;28;20265;-77
2021/01/24 06:56:44;;;;;;;41.23;25.53;;;1.70;99.90;;;;;;5035076;28;20170;-76
2021/01/24 06:59:12;;;;;;;43.67;25.87;;;1.70;99.90;;;;;;5037017;28;20178;-76
2021/01/24 07:01:38;;;;;;;44.40;26.70;;;1.80;99.90;;;;;;5019329;28;20566;-76
2021/01/24 07:04:28;;;;;;;45.37;26.57;;;1.80;99.90;;;;;;5036658;28;20177;-76
2021/01/24 07:07:00;;;;;;;44.67;24.90;;;1.90;99.90;;;;;;5051595;28;20198;-75
2021/01/24 07:09:29;;;;;;;45.33;27.03;;;1.90;99.90;;;;;;5020392;28;20628;-77
2021/01/24 07:11:59;;;;;;;44.03;25.43;;;2.00;99.90;;;;;;5053748;28;20177;-76
2021/01/24 07:14:36;;;;;;;43.77;25.60;;;2.10;99.90;;;;;;5028325;28;20222;-76
2021/01/24 07:17:02;;;;;;;38.47;23.33;;;2.20;99.90;;;;;;5063071;28;20180;-80
2021/01/24 07:19:30;;;;;;;42.17;25.50;;;2.10;99.90;;;;;;5064710;28;20189;-76
2021/01/24 07:21:55;;;;;;;35.87;21.70;;;2.10;99.90;;;;;;5027418;28;20196;-75
2021/01/24 07:24:21;;;;;;;35.20;21.43;;;2.10;99.90;;;;;;5026133;28;20200;-78
2021/01/24 07:26:46;;;;;;;37.93;21.77;;;2.10;99.90;;;;;;5037723;28;20209;-77
2021/01/24 07:29:17;;;;;;;34.10;21.23;;;2.10;99.90;;;;;;5043697;28;20182;-77
2021/01/24 07:31:44;;;;;;;31.20;19.50;;;2.10;99.90;;;;;;5042307;28;20285;-76
2021/01/24 07:34:10;;;;;;;27.73;16.40;;;2.10;99.90;;;;;;5039525;28;20189;-76
2021/01/24 07:36:36;;;;;;;26.23;16.13;;;2.00;99.90;;;;;;5042500;28;20182;-77
2021/01/24 07:39:03;;;;;;;26.20;17.30;;;2.00;99.90;;;;;;5049632;28;20177;-76
2021/01/24 07:41:31;;;;;;;26.27;17.03;;;2.00;99.90;;;;;;5038861;28;20210;-77
2021/01/24 07:43:57;;;;;;;26.20;16.17;;;2.00;99.90;;;;;;5048319;28;20178;-76
2021/01/24 07:46:23;;;;;;;25.33;15.30;;;2.00;99.90;;;;;;5023769;28;20740;-76
2021/01/24 07:48:49;;;;;;;24.03;14.63;;;2.10;99.90;;;;;;5042093;28;20190;-77
2021/01/24 07:51:15;;;;;;;21.33;13.60;;;2.00;99.90;;;;;;5027407;28;20579;-76
2021/01/24 07:53:41;;;;;;;22.87;14.20;;;2.00;99.90;;;;;;5020429;28;20178;-76
2021/01/24 07:56:07;;;;;;;28.53;15.93;;;2.00;99.90;;;;;;5047612;28;20709;-76
2021/01/24 07:58:33;;;;;;;25.80;16.07;;;2.00;99.90;;;;;;5034488;28;20746;-76
2021/01/24 08:00:59;;;;;;;24.90;16.03;;;2.00;99.90;;;;;;5037766;28;20325;-77
2021/01/24 08:03:26;;;;;;;29.47;18.73;;;2.00;99.90;;;;;;5021397;28;20181;-76
2021/01/24 08:05:52;;;;;;;30.67;18.73;;;2.00;99.90;;;;;;5019225;28;20177;-75
2021/01/24 08:08:18;;;;;;;33.73;19.00;;;2.00;99.90;;;;;;5000698;28;20184;-75
2021/01/24 08:10:43;;;;;;;34.63;20.33;;;2.00;99.90;;;;;;5040560;28;20578;-75
2021/01/24 08:13:09;;;;;;;33.07;19.73;;;2.00;99.90;;;;;;5017291;28;20186;-77
2021/01/24 08:15:35;;;;;;;36.90;21.50;;;2.10;99.90;;;;;;5000885;28;20272;-76
2021/01/24 08:18:01;;;;;;;35.83;21.47;;;2.10;99.90;;;;;;5052763;28;20232;-77
2021/01/24 08:20:28;;;;;;;31.70;19.60;;;2.10;99.90;;;;;;5019087;28;20402;-75
2021/01/24 08:22:53;;;;;;;33.37;20.17;;;2.10;99.90;;;;;;5031551;28;20193;-78
2021/01/24 08:25:19;;;;;;;32.67;19.93;;;2.10;99.90;;;;;;5011361;28;20186;-76
2021/01/24 08:27:45;;;;;;;34.17;19.03;;;2.10;99.90;;;;;;5015502;28;20725;-76
2021/01/24 08:30:11;;;;;;;32.57;18.90;;;2.20;99.90;;;;;;5020453;28;20632;-76
2021/01/24 08:32:39;;;;;;;34.27;18.80;;;2.20;99.90;;;;;;5036841;28;20595;-77
2021/01/24 08:35:05;;;;;;;33.00;19.63;;;2.20;99.90;;;;;;5020728;28;20641;-78
2021/01/24 08:37:31;;;;;;;32.50;19.20;;;2.30;99.90;;;;;;5047033;28;20625;-76
2021/01/24 08:39:57;;;;;;;34.07;19.83;;;2.30;99.90;;;;;;5020125;28;20206;-77
2021/01/24 08:42:22;;;;;;;32.60;18.97;;;2.40;99.90;;;;;;5012080;28;20184;-76
2021/01/24 08:45:00;;;;;;;35.53;20.30;;;2.40;99.90;;;;;;5013728;28;20181;-75
2021/01/24 08:47:26;;;;;;;37.17;20.87;;;2.50;99.90;;;;;;5016532;28;20216;-79
2021/01/24 08:50:06;;;;;;;36.67;21.60;;;2.40;99.90;;;;;;5016744;28;20194;-77
2021/01/24 08:52:32;;;;;;;34.97;20.57;;;2.40;99.90;;;;;;5008157;28;20218;-77
2021/01/24 08:55:02;;;;;;;36.67;20.97;;;2.40;99.90;;;;;;5029080;28;20166;-78
2021/01/24 08:57:34;;;;;;;40.33;22.03;;;2.50;99.90;;;;;;5036200;28;20220;-78
2021/01/24 09:00:09;;;;;;;37.20;22.03;;;2.50;99.90;;;;;;5016920;28;20203;-77
2021/01/24 09:02:36;;;;;;;36.73;22.23;;;2.50;99.90;;;;;;5030300;28;20190;-78
2021/01/24 09:05:07;;;;;;;36.43;21.30;;;2.60;99.90;;;;;;5018704;28;20190;-77
2021/01/24 09:07:46;;;;;;;40.20;21.87;;;2.60;99.90;;;;;;5033565;28;20552;-78
2021/01/24 09:10:21;;;;;;;37.87;22.60;;;2.60;99.90;;;;;;5045404;28;20224;-78
2021/01/24 09:12:52;;;;;;;37.03;21.53;;;2.60;99.90;;;;;;5032749;28;20166;-77
2021/01/24 09:15:19;;;;;;;39.33;22.17;;;2.60;99.90;;;;;;5033662;28;20173;-78
2021/01/24 09:17:44;;;;;;;38.97;22.73;;;2.60;99.90;;;;;;5052108;28;20184;-77
2021/01/24 09:20:11;;;;;;;39.33;22.70;;;2.60;99.90;;;;;;5012890;28;20202;-78
2021/01/24 09:22:36;;;;;;;36.07;21.80;;;2.60;99.90;;;;;;5033311;28;20194;-78
2021/01/24 09:25:06;;;;;;;41.37;22.43;;;2.70;99.90;;;;;;5048159;23;20527;-76
2021/01/24 09:27:32;;;;;;;39.70;21.47;;;2.70;99.90;;;;;;4975354;28;20709;-76
2021/01/24 09:29:58;;;;;;;36.47;21.53;;;2.70;99.90;;;;;;4960068;28;20225;-76
2021/01/24 09:32:24;;;;;;;38.07;21.57;;;2.70;99.90;;;;;;4976803;28;20177;-78
2021/01/24 09:34:51;;;;;;;34.90;19.73;;;2.80;99.90;;;;;;4961429;28;20196;-77
2021/01/24 09:37:17;;;;;;;36.70;20.53;;;2.80;99.90;;;;;;4945219;28;20263;-78
2021/01/24 09:39:43;;;;;;;34.40;19.63;;;2.90;99.90;;;;;;4945745;28;20180;-79
2021/01/24 09:42:09;;;;;;;33.93;18.77;;;2.90;99.90;;;;;;4961410;28;20633;-76
2021/01/24 09:44:35;;;;;;;29.20;18.00;;;2.90;99.90;;;;;;4960882;28;20259;-77
2021/01/24 09:47:00;;;;;;;30.50;18.83;;;3.00;99.90;;;;;;4942751;28;20209;-79
2021/01/24 09:49:26;;;;;;;29.70;17.97;;;3.00;99.90;;;;;;4942599;28;20180;-79
2021/01/24 09:51:52;;;;;;;28.13;17.00;;;3.00;99.90;;;;;;4942654;28;20200;-80
2021/01/24 09:54:18;;;;;;;29.20;19.03;;;3.10;99.90;;;;;;4958781;28;20201;-79
2021/01/24 09:56:44;;;;;;;34.57;18.33;;;3.10;99.90;;;;;;4942173;28;20264;-79
2021/01/24 09:59:11;;;;;;;28.13;18.67;;;3.10;99.90;;;;;;4942784;28;20663;-78
2021/01/24 10:01:37;;;;;;;33.27;19.40;;;3.20;99.90;;;;;;4942658;28;20188;-80
2021/01/24 10:04:04;;;;;;;33.03;19.10;;;3.20;99.90;;;;;;4941951;28;20209;-79
2021/01/24 10:06:30;;;;;;;33.40;19.23;;;3.20;99.90;;;;;;4943153;28;20204;-78
2021/01/24 10:08:55;;;;;;;33.77;20.20;;;3.20;99.90;;;;;;4942547;28;20202;-78
2021/01/24 10:11:23;;;;;;;27.10;17.63;;;3.10;99.90;;;;;;4926740;29;20642;-80
2021/01/24 10:13:49;;;;;;;32.87;19.27;;;3.10;99.90;;;;;;4904027;29;20183;-80
2021/01/24 10:16:16;;;;;;;30.93;19.20;;;3.10;99.90;;;;;;4903246;29;20193;-80
2021/01/24 10:18:41;;;;;;;26.67;17.73;;;3.10;99.90;;;;;;4904186;29;20189;-80
2021/01/24 10:21:07;;;;;;;28.43;17.23;;;3.10;99.90;;;;;;4908849;29;20186;-79
2021/01/24 10:23:33;;;;;;;27.53;17.37;;;3.20;99.90;;;;;;4952406;28;20187;-80
2021/01/24 10:25:59;;;;;;;26.80;17.83;;;3.20;99.90;;;;;;4940609;28;20221;-79
2021/01/24 10:28:25;;;;;;;25.60;16.77;;;3.30;99.90;;;;;;4945155;29;20182;-77
2021/01/24 10:30:54;;;;;;;27.97;17.37;;;3.30;99.90;;;;;;4972890;28;20177;-77
2021/01/24 10:33:20;;;;;;;26.07;17.43;;;3.40;99.90;;;;;;4940759;28;20176;-78
2021/01/24 10:35:45;;;;;;;26.23;15.77;;;3.50;99.90;;;;;;4943466;28;20568;-78
2021/01/24 10:38:11;;;;;;;25.50;15.80;;;3.50;99.90;;;;;;4945426;29;20169;-79
2021/01/24 10:40:38;;;;;;;24.67;14.83;;;3.70;99.90;;;;;;4920072;29;20604;-79
2021/01/24 10:43:04;;;;;;;25.53;14.43;;;3.80;99.90;;;;;;4905236;29;20196;-79
2021/01/24 10:45:31;;;;;;;18.43;12.60;;;3.80;99.90;;;;;;4910751;29;20198;-80
2021/01/24 10:47:59;;;;;;;22.93;13.43;;;3.70;99.90;;;;;;4939088;28;20238;-78
2021/01/24 10:50:25;;;;;;;20.53;12.50;;;3.60;99.90;;;;;;4941008;28;20188;-79
2021/01/24 10:52:51;;;;;;;17.80;11.87;;;3.60;99.90;;;;;;4958167;28;20179;-77
2021/01/24 10:55:16;;;;;;;17.60;10.57;;;3.70;99.90;;;;;;4940672;28;20201;-77
2021/01/24 10:57:43;;;;;;;15.53;8.83;;;3.60;99.90;;;;;;4956343;28;20232;-77
2021/01/24 11:00:09;;;;;;;15.23;9.00;;;3.60;99.90;;;;;;4956904;28;20188;-78
2021/01/24 11:02:35;;;;;;;14.77;8.67;;;3.50;99.90;;;;;;4972738;28;20193;-78
2021/01/24 11:05:00;;;;;;;14.93;8.47;;;3.50;99.90;;;;;;4940434;28;20211;-77
2021/01/24 11:07:27;;;;;;;14.93;9.00;;;3.60;99.90;;;;;;4955887;28;20212;-77
2021/01/24 11:09:53;;;;;;;14.13;7.93;;;3.60;99.90;;;;;;4956527;28;20231;-77
2021/01/24 11:12:22;;;;;;;14.67;7.83;;;3.60;99.90;;;;;;4941427;28;20180;-79
2021/01/24 11:14:48;;;;;;;13.73;7.90;;;3.70;99.90;;;;;;4944539;28;20205;-79
2021/01/24 11:17:14;;;;;;;14.83;8.40;;;3.70;99.90;;;;;;4955015;28;20185;-79
2021/01/24 11:19:40;;;;;;;11.97;7.77;;;3.80;99.90;;;;;;4956619;28;20185;-79
2021/01/24 11:22:06;;;;;;;13.83;8.40;;;3.70;99.90;;;;;;4940184;28;20274;-79
2021/01/24 11:24:32;;;;;;;12.00;7.63;;;3.80;99.90;;;;;;4940483;28;20299;-79
2021/01/24 11:26:58;;;;;;;11.33;7.73;;;3.80;99.90;;;;;;4932705;28;20201;-79
2021/01/24 11:29:24;;;;;;;11.70;7.63;;;3.90;99.90;;;;;;4925427;29;20240;-77
2021/01/24 11:31:50;;;;;;;13.50;7.57;;;3.90;99.90;;;;;;4929803;29;20182;-76
2021/01/24 11:34:16;;;;;;;12.60;7.47;;;3.90;99.90;;;;;;4936360;28;20205;-75
2021/01/24 11:36:41;;;;;;;9.90;6.97;;;4.00;99.90;;;;;;4952807;28;20678;-74
2021/01/24 11:39:07;;;;;;;12.17;7.30;;;4.10;99.90;;;;;;4963782;28;20192;-74
2021/01/24 11:41:33;;;;;;;10.40;6.73;;;4.10;99.90;;;;;;4952938;28;20185;-74
2021/01/24 11:43:58;;;;;;;11.70;6.93;;;4.10;99.90;;;;;;4970888;28;20272;-75
2021/01/24 11:46:25;;;;;;;13.13;7.20;;;4.00;99.90;;;;;;4951471;28;20730;-76
2021/01/24 11:48:51;;;;;;;10.70;6.50;;;4.00;99.90;;;;;;4936122;28;20648;-75
2021/01/24 11:51:16;;;;;;;10.07;6.10;;;3.90;99.90;;;;;;4961523;28;20184;-75
2021/01/24 11:53:42;;;;;;;9.20;6.00;;;3.90;99.90;;;;;;4965102;28;20204;-75
2021/01/24 11:56:08;;;;;;;10.97;5.80;;;3.90;99.90;;;;;;4936998;28;20232;-79
2021/01/24 11:58:34;;;;;;;7.40;5.50;;;4.00;99.90;;;;;;4932874;28;20651;-77
2021/01/24 12:01:01;;;;;;;8.90;5.10;;;4.10;99.90;;;;;;4937073;29;20182;-76
2021/01/24 12:03:29;;;;;;;6.97;4.87;;;4.20;99.90;;;;;;4936365;29;20253;-77
2021/01/24 12:05:55;;;;;;;6.40;4.83;;;4.20;99.90;;;;;;4920960;29;20230;-77
2021/01/24 12:08:21;;;;;;;6.33;4.20;;;;;;;;;;4936280;28;20212;-76
2021/01/24 12:10:50;;;;;;;6.13;4.00;;;;;;;;;;4953023;29;20234;-79
2021/01/24 12:13:17;;;;;;;6.17;3.70;;;;;;;;;;4939624;29;20613;-79
2021/01/24 12:15:43;;;;;;;6.37;3.70;;;;;;;;;;4938653;29;20684;-77
2021/01/24 12:18:09;;;;;;;6.77;4.03;;;;;;;;;;4936092;29;20615;-76
2021/01/24 12:20:35;;;;;;;7.60;4.43;;;;;;;;;;4952636;29;20189;-76
2021/01/24 12:23:02;;;;;;;7.03;4.60;;;;;;;;;;4952520;29;20182;-77
2021/01/24 12:25:28;;;;;;;10.83;5.13;;;;;;;;;;4952443;28;20224;-76
2021/01/24 12:27:55;;;;;;;10.07;4.53;;;;;;;;;;4956494;28;20210;-79
2021/01/24 12:30:22;;;;;;;8.83;5.47;;;;;;;;;;4936754;29;20239;-77
2021/01/24 12:32:48;;;;;;;5.83;3.93;;;;;;;;;;4952550;29;20665;-78
2021/01/24 12:35:14;;;;;;;8.63;4.27;;;;;;;;;;4954203;28;20229;-76
2021/01/24 12:37:40;;;;;;;7.30;4.33;;;;;;;;;;4955757;28;20182;-77
2021/01/24 12:40:06;;;;;;;7.70;4.17;;;;;;;;;;4970261;28;20184;-78
2021/01/24 12:42:33;;;;;;;7.10;4.33;;;;;;;;;;4955904;29;20190;-78
2021/01/24 12:44:59;;;;;;;7.03;4.63;;;;;;;;;;4956390;29;20209;-78